createdAt,value
2022-12-25T00:01:17.160Z,9.79
2022-12-25T00:03:49.636Z,9.66
2022-12-25T00:06:16.509Z,10.20
2022-12-25T00:08:43.519Z,10.23
2022-12-25T00:11:17.279Z,10.42
2022-12-25T00:13:47.458Z,10.12
2022-12-25T00:16:24.158Z,9.93
2022-12-25T00:18:58.971Z,9.81
2022-12-25T00:21:25.849Z,9.69
2022-12-25T00:24:04.211Z,9.64
2022-12-25T00:26:33.564Z,9.62
2022-12-25T00:29:00.285Z,9.61
2022-12-25T00:31:27.368Z,9.60
2022-12-25T00:33:58.041Z,9.65
2022-12-25T00:36:24.920Z,9.66
2022-12-25T00:38:57.161Z,9.65
2022-12-25T00:41:24.499Z,9.63
2022-12-25T00:43:56.881Z,9.65
2022-12-25T00:46:23.739Z,9.61
2022-12-25T00:48:50.723Z,9.57
2022-12-25T00:51:17.434Z,9.54
2022-12-25T00:53:44.117Z,9.57
2022-12-25T00:56:10.950Z,9.59
2022-12-25T00:58:37.766Z,9.60
2022-12-25T01:01:04.499Z,9.57
2022-12-25T01:03:34.156Z,9.55
2022-12-25T01:06:06.955Z,9.49
2022-12-25T01:08:37.055Z,9.49
2022-12-25T01:11:09.984Z,9.52
2022-12-25T01:13:37.682Z,9.51
2022-12-25T01:16:09.914Z,9.51
2022-12-25T01:18:37.743Z,9.49
2022-12-25T01:21:14.307Z,9.62
2022-12-25T01:23:41.106Z,9.58
2022-12-25T01:26:10.241Z,9.53
2022-12-25T01:28:37.783Z,9.57
2022-12-25T01:31:09.687Z,9.87
2022-12-25T01:33:36.475Z,9.72
2022-12-25T01:36:03.235Z,9.66
2022-12-25T01:38:29.920Z,9.62
2022-12-25T01:40:56.700Z,9.63
2022-12-25T01:43:29.961Z,9.61
2022-12-25T01:45:59.989Z,9.56
2022-12-25T01:48:36.389Z,9.52
2022-12-25T01:51:15.915Z,9.61
2022-12-25T01:53:42.582Z,9.72
2022-12-25T01:56:14.588Z,9.65
2022-12-25T01:58:45.420Z,9.63
2022-12-25T02:01:21.235Z,9.61
2022-12-25T02:03:48.065Z,9.59
2022-12-25T02:06:14.717Z,9.53
2022-12-25T02:08:41.924Z,9.64
2022-12-25T02:11:09.167Z,9.60
2022-12-25T02:13:35.845Z,9.55
2022-12-25T02:16:13.264Z,9.55
2022-12-25T02:18:48.127Z,9.52
2022-12-25T02:21:35.772Z,9.56
2022-12-25T02:24:17.443Z,9.54
2022-12-25T02:27:05.466Z,9.54
2022-12-25T02:30:13.714Z,9.57
2022-12-25T02:33:00.496Z,9.58
2022-12-25T02:35:31.600Z,9.62
2022-12-25T02:38:06.806Z,9.68
2022-12-25T02:40:39.623Z,9.85
2022-12-25T02:43:11.543Z,9.83
2022-12-25T02:45:48.163Z,9.74
2022-12-25T02:48:17.310Z,9.77
2022-12-25T02:50:47.253Z,9.93
2022-12-25T02:53:14.069Z,9.98
2022-12-25T02:55:43.123Z,10.10
2022-12-25T02:58:15.379Z,9.91
2022-12-25T03:00:47.881Z,9.79
2022-12-25T03:03:16.472Z,9.83
2022-12-25T03:05:46.789Z,9.84
2022-12-25T03:08:19.520Z,9.73
2022-12-25T03:10:52.821Z,9.72
2022-12-25T03:13:26.159Z,9.68
2022-12-25T03:15:53.181Z,9.75
2022-12-25T03:18:23.620Z,9.83
2022-12-25T03:20:51.669Z,9.75
2022-12-25T03:23:25.778Z,9.77
2022-12-25T03:25:52.617Z,9.90
2022-12-25T03:28:19.576Z,9.74
2022-12-25T03:31:12.016Z,9.77
2022-12-25T03:34:09.151Z,9.78
2022-12-25T03:37:00.093Z,9.79
2022-12-25T03:39:45.745Z,9.71
2022-12-25T03:42:16.032Z,9.66
2022-12-25T03:45:10.512Z,9.68
2022-12-25T03:47:46.454Z,9.68
2022-12-25T03:50:24.337Z,9.77
2022-12-25T03:52:54.024Z,9.71
2022-12-25T03:55:23.235Z,9.57
2022-12-25T03:57:50.168Z,9.55
2022-12-25T04:00:17.119Z,9.52
2022-12-25T04:02:44.192Z,9.52
2022-12-25T04:05:11.020Z,9.55
2022-12-25T04:07:37.779Z,9.63
2022-12-25T04:10:04.799Z,9.61
2022-12-25T04:12:31.518Z,9.80
2022-12-25T04:14:58.279Z,9.68
2022-12-25T04:17:25.002Z,9.68
2022-12-25T04:19:51.787Z,9.71
2022-12-25T04:22:18.562Z,9.65
2022-12-25T04:24:49.062Z,9.58
2022-12-25T04:27:16.758Z,9.60
2022-12-25T04:29:43.507Z,9.63
2022-12-25T04:32:11.305Z,9.69
2022-12-25T04:34:37.940Z,9.59
2022-12-25T04:37:04.714Z,9.54
2022-12-25T04:39:33.922Z,9.55
2022-12-25T04:42:00.660Z,9.70
2022-12-25T04:44:27.630Z,9.61
2022-12-25T04:47:01.125Z,9.59
2022-12-25T04:49:30.282Z,9.59
2022-12-25T04:51:57.219Z,9.59
2022-12-25T04:54:23.908Z,9.59
2022-12-25T04:56:53.457Z,9.59
2022-12-25T04:59:21.934Z,9.58
2022-12-25T05:01:48.965Z,9.62
2022-12-25T05:04:17.990Z,9.69
2022-12-25T05:06:48.000Z,9.70
2022-12-25T05:09:14.799Z,9.75
2022-12-25T05:11:41.502Z,9.76
2022-12-25T05:14:10.988Z,9.72
2022-12-25T05:16:37.791Z,9.75
2022-12-25T05:19:07.605Z,9.74
2022-12-25T05:21:34.316Z,9.85
2022-12-25T05:24:01.334Z,9.77
2022-12-25T05:26:28.132Z,9.69
2022-12-25T05:28:55.671Z,9.77
2022-12-25T05:31:22.618Z,9.85
2022-12-25T05:33:56.884Z,10.09
2022-12-25T05:36:27.178Z,9.92
2022-12-25T05:38:54.500Z,9.79
2022-12-25T05:41:21.304Z,9.77
2022-12-25T05:43:53.436Z,9.85
2022-12-25T05:46:20.288Z,9.80
2022-12-25T05:48:47.056Z,9.83
2022-12-25T05:51:14.779Z,9.81
2022-12-25T05:53:43.086Z,9.91
2022-12-25T05:56:10.352Z,10.11
2022-12-25T05:58:38.981Z,9.91
2022-12-25T06:01:12.311Z,9.86
2022-12-25T06:03:39.058Z,9.81
2022-12-25T06:06:06.221Z,9.84
2022-12-25T06:08:33.054Z,9.82
2022-12-25T06:11:02.199Z,9.78
2022-12-25T06:13:29.197Z,9.72
2022-12-25T06:15:55.921Z,9.73
2022-12-25T06:18:22.727Z,9.73
2022-12-25T06:20:49.414Z,9.74
2022-12-25T06:23:16.147Z,9.70
2022-12-25T06:25:42.864Z,9.69
2022-12-25T06:28:09.580Z,9.71
2022-12-25T06:30:36.235Z,9.72
2022-12-25T06:33:02.882Z,9.70
2022-12-25T06:35:29.514Z,9.72
2022-12-25T06:37:56.195Z,9.73
2022-12-25T06:40:22.905Z,9.79
2022-12-25T06:42:49.671Z,9.76
2022-12-25T06:45:18.864Z,9.77
2022-12-25T06:47:45.666Z,9.80
2022-12-25T06:50:12.375Z,9.81
2022-12-25T06:52:39.120Z,9.80
2022-12-25T06:55:06.713Z,9.82
2022-12-25T06:57:33.416Z,9.85
2022-12-25T07:00:00.089Z,9.86
2022-12-25T07:02:28.622Z,9.80
2022-12-25T07:04:55.494Z,9.79
2022-12-25T07:07:22.292Z,9.96
2022-12-25T07:09:48.982Z,9.86
2022-12-25T07:12:23.630Z,9.83
2022-12-25T07:14:52.668Z,9.83
2022-12-25T07:17:20.567Z,9.83
2022-12-25T07:19:49.934Z,9.83
2022-12-25T07:22:17.031Z,9.84
2022-12-25T07:24:44.021Z,9.85
2022-12-25T07:27:10.762Z,9.86
2022-12-25T07:29:37.418Z,9.85
2022-12-25T07:32:04.499Z,9.96
2022-12-25T07:34:31.343Z,9.93
2022-12-25T07:36:58.027Z,9.93
2022-12-25T07:39:24.834Z,9.91
2022-12-25T07:41:51.683Z,9.92
2022-12-25T07:44:18.692Z,9.91
2022-12-25T07:46:46.118Z,9.94
2022-12-25T07:49:13.325Z,9.96
2022-12-25T07:51:40.262Z,9.98
2022-12-25T07:54:06.996Z,9.98
2022-12-25T07:56:33.839Z,9.97
2022-12-25T07:59:00.576Z,9.98
2022-12-25T08:01:29.767Z,9.98
2022-12-25T08:03:59.017Z,10.02
2022-12-25T08:06:31.110Z,10.05
2022-12-25T08:09:08.695Z,10.06
2022-12-25T08:11:35.603Z,10.00
2022-12-25T08:14:09.772Z,9.99
2022-12-25T08:16:36.691Z,10.02
2022-12-25T08:19:03.406Z,10.00
2022-12-25T08:21:32.221Z,10.03
2022-12-25T08:24:00.497Z,10.08
2022-12-25T08:26:27.316Z,10.13
2022-12-25T08:28:54.295Z,10.16
2022-12-25T08:31:28.563Z,10.27
2022-12-25T08:33:58.057Z,10.37
2022-12-25T08:36:25.315Z,10.52
2022-12-25T08:38:57.023Z,10.59
2022-12-25T08:41:27.842Z,10.60
2022-12-25T08:43:59.689Z,10.57
2022-12-25T08:46:27.035Z,10.56
2022-12-25T08:48:53.676Z,10.55
2022-12-25T08:51:27.912Z,10.56
2022-12-25T08:53:59.319Z,10.52
2022-12-25T08:56:27.265Z,10.53
2022-12-25T08:58:58.125Z,10.54
2022-12-25T09:01:28.222Z,10.58
2022-12-25T09:03:58.389Z,10.59
2022-12-25T09:06:25.208Z,10.61
2022-12-25T09:08:51.960Z,10.58
2022-12-25T09:11:20.551Z,10.62
2022-12-25T09:13:47.813Z,10.65
2022-12-25T09:16:17.737Z,10.66
2022-12-25T09:18:44.612Z,10.62
2022-12-25T09:21:14.141Z,10.59
2022-12-25T09:23:41.067Z,10.68
2022-12-25T09:26:11.105Z,10.66
2022-12-25T09:28:37.889Z,10.67
2022-12-25T09:31:06.479Z,10.66
2022-12-25T09:33:34.223Z,10.64
2022-12-25T09:36:04.549Z,10.62
2022-12-25T09:38:31.922Z,10.54
2022-12-25T09:41:00.128Z,10.51
2022-12-25T09:43:31.424Z,10.58
2022-12-25T09:46:00.559Z,10.49
2022-12-25T09:48:30.659Z,10.57
2022-12-25T09:51:05.893Z,10.53
2022-12-25T09:53:39.489Z,10.36
2022-12-25T09:56:21.426Z,10.44
2022-12-25T09:58:48.576Z,10.45
2022-12-25T10:01:41.377Z,10.45
2022-12-25T10:04:40.968Z,10.48
2022-12-25T10:07:08.387Z,10.63
2022-12-25T10:09:50.182Z,10.62
2022-12-25T10:12:38.335Z,10.73
2022-12-25T10:15:15.023Z,10.77
2022-12-25T10:17:41.633Z,10.84
2022-12-25T10:20:21.461Z,10.81
2022-12-25T10:22:53.593Z,10.92
2022-12-25T10:25:23.377Z,10.91
2022-12-25T10:27:55.591Z,10.83
2022-12-25T10:30:24.904Z,10.98
2022-12-25T10:32:53.088Z,10.93
2022-12-25T10:35:22.692Z,11.16
2022-12-25T10:38:19.648Z,11.16
2022-12-25T10:41:17.128Z,11.26
2022-12-25T10:43:57.830Z,11.43
2022-12-25T10:46:29.077Z,11.21
2022-12-25T10:49:00.409Z,11.03
2022-12-25T10:51:35.663Z,10.84
2022-12-25T10:54:28.028Z,11.10
2022-12-25T10:56:58.506Z,11.01
2022-12-25T10:59:28.599Z,10.89
2022-12-25T11:01:57.361Z,10.77
2022-12-25T11:04:28.165Z,10.74
2022-12-25T11:07:01.534Z,10.68
2022-12-25T11:09:28.880Z,10.68
2022-12-25T11:11:55.675Z,10.65
2022-12-25T11:14:25.267Z,10.93
2022-12-25T11:16:53.384Z,10.95
2022-12-25T11:19:24.761Z,10.83
2022-12-25T11:21:57.761Z,10.82
2022-12-25T11:24:30.280Z,10.86
2022-12-25T11:27:04.965Z,11.27
2022-12-25T11:29:45.224Z,11.08
2022-12-25T11:32:22.859Z,10.94
2022-12-25T11:34:52.204Z,10.77
2022-12-25T11:37:31.676Z,10.99
2022-12-25T11:40:02.399Z,10.97
2022-12-25T11:42:38.259Z,10.92
2022-12-25T11:45:20.263Z,10.89
2022-12-25T11:47:50.968Z,10.87
2022-12-25T11:50:27.839Z,10.77
2022-12-25T11:52:55.455Z,10.69
2022-12-25T11:55:37.975Z,10.63
2022-12-25T11:58:21.838Z,10.60
2022-12-25T12:00:52.316Z,10.57
2022-12-25T12:03:37.858Z,10.61
2022-12-25T12:06:27.193Z,10.93
2022-12-25T12:09:01.728Z,10.94
2022-12-25T12:11:41.389Z,10.79
2022-12-25T12:14:55.422Z,10.77
2022-12-25T12:17:22.294Z,10.86
2022-12-25T12:19:49.127Z,10.84
2022-12-25T12:22:21.471Z,10.87
2022-12-25T12:25:14.669Z,10.86
2022-12-25T12:27:45.873Z,10.87
2022-12-25T12:30:42.945Z,10.86
2022-12-25T12:33:20.718Z,10.91
2022-12-25T12:35:48.928Z,10.96
2022-12-25T12:38:19.819Z,10.98
2022-12-25T12:41:00.526Z,11.22
2022-12-25T12:43:27.137Z,11.13
2022-12-25T12:46:02.591Z,11.26
2022-12-25T12:48:30.239Z,11.75
2022-12-25T12:51:12.726Z,11.68
2022-12-25T12:53:41.765Z,11.64
2022-12-25T12:56:19.761Z,11.55
2022-12-25T12:58:50.365Z,11.39
2022-12-25T13:01:44.938Z,11.34
2022-12-25T13:04:34.587Z,11.30
2022-12-25T13:07:23.525Z,11.32
2022-12-25T13:09:59.236Z,11.36
2022-12-25T13:12:26.167Z,11.42
2022-12-25T13:14:55.542Z,11.55
2022-12-25T13:17:24.814Z,11.56
2022-12-25T13:19:56.028Z,11.54
2022-12-25T13:22:35.690Z,11.52
2022-12-25T13:25:06.829Z,11.49
2022-12-25T13:27:34.023Z,11.55
2022-12-25T13:30:11.311Z,11.53
2022-12-25T13:32:37.969Z,11.53
2022-12-25T13:35:06.664Z,11.50
2022-12-25T13:37:33.333Z,11.51
2022-12-25T13:40:03.770Z,11.51
2022-12-25T13:42:33.205Z,11.52
2022-12-25T13:45:18.840Z,11.51
2022-12-25T13:47:53.037Z,11.54
2022-12-25T13:50:28.936Z,11.56
2022-12-25T13:53:01.220Z,11.57
2022-12-25T13:55:29.496Z,11.57
2022-12-25T13:57:59.235Z,11.57
2022-12-25T14:00:32.605Z,11.55
2022-12-25T14:02:59.960Z,11.51
2022-12-25T14:05:41.640Z,11.55
2022-12-25T14:08:23.208Z,11.69
2022-12-25T14:10:52.629Z,11.75
2022-12-25T14:13:27.741Z,11.77
2022-12-25T14:16:08.009Z,11.68
2022-12-25T14:18:34.872Z,11.65
2022-12-25T14:21:05.066Z,11.59
2022-12-25T14:23:50.885Z,11.59
2022-12-25T14:26:20.176Z,11.58
2022-12-25T14:28:57.730Z,11.54
2022-12-25T14:31:24.988Z,11.58
2022-12-25T14:33:52.675Z,11.63
2022-12-25T14:36:22.469Z,11.58
2022-12-25T14:39:00.722Z,11.53
2022-12-25T14:41:39.626Z,11.53
2022-12-25T14:44:36.103Z,11.51
2022-12-25T14:47:17.685Z,11.55
2022-12-25T14:49:46.988Z,11.52
2022-12-25T14:52:24.119Z,11.57
2022-12-25T14:54:59.800Z,11.54
2022-12-25T14:57:37.310Z,11.51
2022-12-25T15:00:40.373Z,11.49
2022-12-25T15:03:25.533Z,11.45
2022-12-25T15:06:06.753Z,11.45
2022-12-25T15:08:34.734Z,11.44
2022-12-25T15:11:03.051Z,11.44
2022-12-25T15:13:31.740Z,11.50
2022-12-25T15:15:58.552Z,11.48
2022-12-25T15:18:30.465Z,11.45
2022-12-25T15:20:57.412Z,11.48
2022-12-25T15:23:24.108Z,11.45
2022-12-25T15:25:53.079Z,11.46
2022-12-25T15:28:20.350Z,11.44
2022-12-25T15:30:47.173Z,11.42
2022-12-25T15:33:15.798Z,11.39
2022-12-25T15:35:42.926Z,11.40
2022-12-25T15:38:09.850Z,11.36
2022-12-25T15:40:36.568Z,11.31
2022-12-25T15:43:11.480Z,11.24
2022-12-25T15:45:49.204Z,11.20
2022-12-25T15:48:18.387Z,11.19
2022-12-25T15:50:45.047Z,11.16
2022-12-25T15:53:14.586Z,11.12
2022-12-25T15:55:42.749Z,11.08
2022-12-25T15:58:12.932Z,11.06
2022-12-25T16:00:39.609Z,11.07
2022-12-25T16:03:06.465Z,11.07
2022-12-25T16:05:45.022Z,11.07
2022-12-25T16:08:14.830Z,11.08
2022-12-25T16:10:41.765Z,11.15
2022-12-25T16:13:08.614Z,11.13
2022-12-25T16:15:35.852Z,11.11
2022-12-25T16:18:02.956Z,11.12
2022-12-25T16:20:30.037Z,11.23
2022-12-25T16:22:56.889Z,11.14
2022-12-25T16:25:23.740Z,11.09
2022-12-25T16:27:50.507Z,11.08
2022-12-25T16:30:18.432Z,11.06
2022-12-25T16:32:49.646Z,11.04
2022-12-25T16:35:16.709Z,11.01
2022-12-25T16:37:45.880Z,11.00
2022-12-25T16:40:12.657Z,11.03
2022-12-25T16:42:39.396Z,10.99
2022-12-25T16:45:07.107Z,11.03
2022-12-25T16:47:33.834Z,11.00
2022-12-25T16:50:00.660Z,10.95
2022-12-25T16:52:27.400Z,10.99
2022-12-25T16:54:57.898Z,11.01
2022-12-25T16:57:25.096Z,10.99
2022-12-25T16:59:51.913Z,10.97
2022-12-25T17:02:21.839Z,10.95
2022-12-25T17:04:51.686Z,10.95
2022-12-25T17:07:18.649Z,10.97
2022-12-25T17:09:50.240Z,10.95
2022-12-25T17:12:19.841Z,10.93
2022-12-25T17:14:48.349Z,10.94
2022-12-25T17:17:15.162Z,10.93
2022-12-25T17:19:41.860Z,10.94
2022-12-25T17:22:08.625Z,10.95
2022-12-25T17:24:36.870Z,10.93
2022-12-25T17:27:04.259Z,10.93
2022-12-25T17:29:31.282Z,10.97
2022-12-25T17:31:58.061Z,10.97
2022-12-25T17:34:24.960Z,10.95
2022-12-25T17:36:53.283Z,10.96
2022-12-25T17:39:20.187Z,10.96
2022-12-25T17:41:49.971Z,10.98
2022-12-25T17:44:17.423Z,11.00
2022-12-25T17:46:44.194Z,11.09
2022-12-25T17:49:15.916Z,11.03
2022-12-25T17:51:42.721Z,10.97
2022-12-25T17:54:09.784Z,10.95
2022-12-25T17:56:37.033Z,10.94
2022-12-25T17:59:13.556Z,10.88
2022-12-25T18:01:40.411Z,10.89
2022-12-25T18:04:07.278Z,10.88
2022-12-25T18:06:35.635Z,10.88
2022-12-25T18:09:03.836Z,10.89
2022-12-25T18:11:30.869Z,10.90
2022-12-25T18:14:04.309Z,10.89
2022-12-25T18:16:34.927Z,10.99
2022-12-25T18:19:02.440Z,10.92
2022-12-25T18:21:30.123Z,10.81
2022-12-25T18:24:06.136Z,10.74
2022-12-25T18:26:33.375Z,10.71
2022-12-25T18:29:00.200Z,10.67
2022-12-25T18:31:28.066Z,10.84
2022-12-25T18:33:57.474Z,10.84
2022-12-25T18:36:28.589Z,11.25
2022-12-25T18:38:58.496Z,11.10
2022-12-25T18:41:28.180Z,10.97
2022-12-25T18:43:55.799Z,10.93
2022-12-25T18:46:24.935Z,10.97
2022-12-25T18:48:53.010Z,10.90
2022-12-25T18:51:23.149Z,10.87
2022-12-25T18:53:52.832Z,10.81
2022-12-25T18:56:22.709Z,10.80
2022-12-25T18:58:49.543Z,10.81
2022-12-25T19:01:25.408Z,10.86
2022-12-25T19:04:04.092Z,10.85
2022-12-25T19:06:32.122Z,10.86
2022-12-25T19:08:58.823Z,10.85
2022-12-25T19:11:25.897Z,10.84
2022-12-25T19:13:52.764Z,10.84
2022-12-25T19:16:19.511Z,10.84
2022-12-25T19:18:46.696Z,10.92
2022-12-25T19:21:13.732Z,10.89
2022-12-25T19:23:40.727Z,10.88
2022-12-25T19:26:08.738Z,10.89
2022-12-25T19:28:36.257Z,10.89
2022-12-25T19:31:05.015Z,10.89
2022-12-25T19:33:32.114Z,11.05
2022-12-25T19:36:08.116Z,11.15
2022-12-25T19:38:35.554Z,11.05
2022-12-25T19:41:13.260Z,11.10
2022-12-25T19:43:44.576Z,11.05
2022-12-25T19:46:17.734Z,10.97
2022-12-25T19:48:44.505Z,10.97
2022-12-25T19:51:20.271Z,11.27
2022-12-25T19:53:47.178Z,11.13
2022-12-25T19:56:14.393Z,11.20
2022-12-25T19:58:41.332Z,11.07
2022-12-25T20:01:12.290Z,11.05
2022-12-25T20:03:45.746Z,11.09
2022-12-25T20:06:31.400Z,11.03
2022-12-25T20:09:24.216Z,10.98
2022-12-25T20:11:51.357Z,10.90
2022-12-25T20:14:20.732Z,10.87
2022-12-25T20:16:49.348Z,10.86
2022-12-25T20:19:16.336Z,10.83
2022-12-25T20:21:43.454Z,10.84
2022-12-25T20:24:10.428Z,10.89
2022-12-25T20:26:39.483Z,10.90
2022-12-25T20:29:06.895Z,10.88
2022-12-25T20:31:36.258Z,10.87
2022-12-25T20:34:12.069Z,10.86
2022-12-25T20:36:39.386Z,10.88
2022-12-25T20:39:08.020Z,10.86
2022-12-25T20:41:34.936Z,10.84
2022-12-25T20:44:01.730Z,10.84
2022-12-25T20:46:29.475Z,10.85
2022-12-25T20:48:56.354Z,10.97
2022-12-25T20:51:25.507Z,10.91
2022-12-25T20:53:53.803Z,10.90
2022-12-25T20:56:22.582Z,10.92
2022-12-25T20:58:56.938Z,10.88
2022-12-25T21:01:24.166Z,10.95
2022-12-25T21:03:54.502Z,10.94
2022-12-25T21:06:22.185Z,11.00
2022-12-25T21:08:49.801Z,10.96
2022-12-25T21:11:16.925Z,10.92
2022-12-25T21:13:46.625Z,10.91
2022-12-25T21:16:19.051Z,10.90
2022-12-25T21:18:49.370Z,10.89
2022-12-25T21:21:18.615Z,10.89
2022-12-25T21:23:45.690Z,11.00
2022-12-25T21:26:24.846Z,11.14
2022-12-25T21:29:00.881Z,11.12
2022-12-25T21:31:29.519Z,11.23
2022-12-25T21:33:58.832Z,11.24
2022-12-25T21:36:29.264Z,11.10
2022-12-25T21:39:08.499Z,11.39
2022-12-25T21:41:37.263Z,11.49
2022-12-25T21:44:04.494Z,11.35
2022-12-25T21:46:32.330Z,11.20
2022-12-25T21:49:02.839Z,11.14
2022-12-25T21:51:32.348Z,11.35
2022-12-25T21:54:00.529Z,11.14
2022-12-25T21:56:31.545Z,11.10
2022-12-25T21:59:04.118Z,11.10
2022-12-25T22:01:31.890Z,11.12
2022-12-25T22:04:04.957Z,11.04
2022-12-25T22:06:32.996Z,10.96
2022-12-25T22:09:02.544Z,10.90
2022-12-25T22:11:29.921Z,11.07
2022-12-25T22:13:57.825Z,10.97
2022-12-25T22:16:28.106Z,10.89
2022-12-25T22:18:55.011Z,10.85
2022-12-25T22:21:24.439Z,10.95
2022-12-25T22:23:54.846Z,10.94
2022-12-25T22:26:21.651Z,10.73
2022-12-25T22:28:51.154Z,10.71
2022-12-25T22:31:18.787Z,10.64
2022-12-25T22:33:46.779Z,10.65
2022-12-25T22:36:13.569Z,10.76
2022-12-25T22:38:42.976Z,11.01
2022-12-25T22:41:10.504Z,11.01
2022-12-25T22:44:15.299Z,11.06
2022-12-25T22:46:26.152Z,11.09
2022-12-25T22:49:00.348Z,10.86
2022-12-25T22:51:27.395Z,10.72
2022-12-25T22:53:57.478Z,10.78
2022-12-25T22:56:28.957Z,10.67
2022-12-25T22:58:57.483Z,10.63
2022-12-25T23:01:24.388Z,10.62
2022-12-25T23:03:55.302Z,10.62
2022-12-25T23:06:22.282Z,10.65
2022-12-25T23:08:49.365Z,10.86
2022-12-25T23:11:16.923Z,10.75
2022-12-25T23:13:43.908Z,10.96
2022-12-25T23:16:16.877Z,10.85
2022-12-25T23:18:44.266Z,10.70
2022-12-25T23:21:16.110Z,10.66
2022-12-25T23:23:43.308Z,10.71
2022-12-25T23:26:11.713Z,10.84
2022-12-25T23:28:41.831Z,10.71
2022-12-25T23:31:08.941Z,10.82
2022-12-25T23:33:35.845Z,10.85
2022-12-25T23:36:02.762Z,10.73
2022-12-25T23:38:31.113Z,10.59
2022-12-25T23:40:58.303Z,10.51
2022-12-25T23:43:27.667Z,10.55
2022-12-25T23:45:54.576Z,10.59
2022-12-25T23:48:22.456Z,10.74
2022-12-25T23:50:49.065Z,10.76
2022-12-25T23:53:16.180Z,10.73
2022-12-25T23:55:43.576Z,10.71
2022-12-25T23:58:10.900Z,10.66
